仙台空港の過去48時間の天気

仙台空港 (Sendai)

現在時刻: 9/23 06:22 JST (9/22 21:22 UTC) 以下の時間は現地時間です。

過去48時間のMETAR気象情報
時間 風向 風速(m/s) 視程 気温(℃) 湿度(%) 気圧(hPa) 天気現象
23 06:00 北北西 5 2000m 18 94 1012 弱いしゅう雨 もや
23 05:39 北北西 4 2000m 18 94 1012 弱いしゅう雨 もや
23 05:30 4 2000m 18 94 1012 弱いしゅう雨 もや
22 21:00 2 8000m 19 94 1019 弱い雨
22 20:00 北北西 2 5000m 19 94 1019 弱い雨 もや
22 19:12 北北西 2 5000m 19 94 1019 弱い雨 もや
22 19:00 北北西 2 4500m 19 94 1019 弱い雨 もや
22 18:49 不定 1 4500m 19 94 1019 弱い雨 もや
22 18:00 不定 1 10km以上 20 88 1019 弱い雨
22 17:00 東南東 3 10km以上 20 83 1019 弱い雨
22 16:00 不定 1 8000m 20 88 1019 弱い雨
22 15:39 不定 1 6000m 20 88 1019 弱い雨
22 15:18 東南東 3 3000m 19 94 1019 雨 もや
22 15:00 2 6000m 20 88 1019 弱い雨
22 14:00 東北東 4 8000m 21 88 1019 周辺でしゅう雨
22 13:41 東北東 3 10km以上 21 88 1019
22 13:00 3 10km以上 21 83 1020
22 12:00 北東 3 10km以上 22 73 1020
22 11:00 北北東 2 10km以上 21 78 1021 弱い雨
22 10:00 北北東 3 10km以上 21 73 1021
22 09:00 3 10km以上 21 73 1021
22 08:00 北北西 2 10km以上 19 83 1021
22 07:00 2 10km以上 18 88 1022
22 06:00 西 2 10km以上 18 88 1021
22 05:30 西 2 10km以上 18 88 1021
RJSS 222100Z 33009KT 2000 -SHRA BR FEW001 SCT002 BKN004 18/17 Q1012
RJSS 222039Z 34008KT 2000 R27/2000N -SHRA BR FEW001 SCT002 BKN004 18/17 Q1012 RMK 1ST001 3ST002 6ST004 A2991
RJSS 222030Z 35007KT 2000 -SHRA BR FEW002 SCT004 BKN006 18/17 Q1012 RMK 1ST002 3ST004 7ST006 A2991
RJSS 221200Z 35003KT 320V030 8000 -RA FEW008 SCT015 BKN025 19/18 Q1019
RJSS 221100Z 33004KT 5000 -RA BR FEW008 SCT015 BKN025 19/18 Q1019
RJSS 221012Z 34004KT 5000 -RA BR FEW008 SCT015 BKN020 19/18 Q1019 RMK 1ST008 4SC015 6SC020 A3011
RJSS 221000Z 34003KT 310V020 4500 -RA BR FEW006 SCT010 BKN015 19/18 Q1019
RJSS 220949Z VRB02KT 4500 -RA BR FEW008 SCT015 BKN020 19/18 Q1019 RMK 1ST008 4SC015 6SC020 A3011
RJSS 220900Z VRB02KT 9999 -RA FEW008 SCT015 BKN020 20/18 Q1019
RJSS 220800Z 12005KT 9999 -RA FEW008 SCT012 BKN020 20/17 Q1019
RJSS 220700Z VRB01KT 8000 -RA FEW008 SCT015 BKN020 20/18 Q1019
RJSS 220639Z VRB02KT 6000 -RA FEW006 SCT015 BKN020 20/18 Q1019 RMK 1ST006 3ST015 6SC020 A3010
RJSS 220618Z 11005KT 3000 RA BR FEW004 SCT008 BKN015 19/18 Q1019 RMK 1ST004 3ST008 6ST015 A3010 8000E-S
RJSS 220600Z 09003KT 030V160 6000 -RA FEW004 BKN008 BKN012 20/18 Q1019
RJSS 220500Z 06008KT 8000 VCSH FEW005 SCT008 BKN030 21/19 Q1019
RJSS 220441Z 06006KT 9999 FEW005 BKN008 BKN030 21/19 Q1019 RMK 1ST005 5ST008 7SC030 A3011
RJSS 220400Z 09006KT 060V120 9999 FEW008 SCT010 BKN020 21/18 Q1020
RJSS 220300Z 04006KT 9999 FEW010 SCT020 BKN040 22/17 Q1020
RJSS 220200Z 02004KT 340V060 9999 -RA FEW010 BKN020 BKN030 21/17 Q1021
RJSS 220100Z 03006KT 9999 FEW015 SCT025 BKN030 21/16 Q1021
RJSS 220000Z 36006KT 9999 FEW015 SCT030 BKN080 21/16 Q1021
RJSS 212300Z 34004KT 9999 FEW010 BKN080 19/16 Q1021
RJSS 212200Z 35003KT 9999 FEW008 BKN080 18/16 Q1022
RJSS 212100Z 26003KT 9999 FEW008 BKN080 18/16 Q1021
RJSS 212030Z 26003KT 9999 FEW008 BKN080 18/16 Q1021 RMK 1ST008 7AC080 A3016